Sonic Adventure (DX): Overall Rankings

Records: Times | Rings | Scores | Races | Bosses | Freestyle
Leaders: Times | Rings | Scores | Races | Bosses | Freestyle | Overall
Rank Player Percent Points Date
1 Sonicspeedruner 98.4% 247 01-30-15
2 Gamepro011 97.5% 391 01-30-15
3 DarkPolarNight 96.5% 551 01-30-15
4 Jawzun 94.0% 953 01-30-15
5 Dashjump 92.0% 1267 01-30-15
6 DarkspinesSonic 91.1% 1409 01-30-15
7 Avento128bits 90.6% 1486 01-30-15
8 ike6252 90.5% 1508 01-30-15
9 F-Man 86.3% 2171 01-30-15
10 HyperSonic7701 85.6% 2291 01-30-15
11 yoshifan 84.1% 2529 01-30-15
12 Coolfansonic 84.0% 2537 01-30-15
13 frankoredstrato 83.6% 2606 01-30-15
14 francisco 82.5% 2780 01-30-15
15 Marth 82.2% 2829 01-30-15
16 InferSaime 81.1% 3004 01-30-15
17 PfoSonic 80.7% 3070 01-30-15
18 Paragod 80.1% 3161 01-30-15
19 THC98 78.6% 3397 01-30-15
20 Stefan 77.0% 3650 01-30-15
21 RPGnutter 74.9% 3994 01-30-15
22 bertin 74.6% 4043 01-30-15
23 sonicam 72.4% 4385 01-30-15
24 Combo 66.6% 5316 01-30-15
25 SkyLights 65.4% 5504 01-30-15
26 Diamond 63.5% 5802 01-30-15
27 SonicDash1999 62.5% 5965 01-30-15
28 Auriman1 61.2% 6177 01-30-15
28 GerbilSoft 61.2% 6177 01-30-15
30 OmegaDJ 61.2% 6180 01-30-15
31 magnum12 60.2% 6337 01-30-15
32 Dawid8404 60.0% 6359 01-30-15
33 Thorn 58.2% 6657 01-30-15
34 P1 Pause 57.9% 6703 01-30-15
35 mike89 56.6% 6906 01-30-15
36 Groudon199 54.7% 7214 01-30-15
37 Dave Cramer 54.6% 7225 01-30-15
38 chainchumper 54.2% 7289 01-30-15
39 Shadow Jacky 53.5% 7393 01-30-15
40 Parax 53.5% 7404 01-30-15
41 Psymar 48.3% 8225 01-30-15
42 Chao_Fan 46.6% 8505 01-30-15
43 Arch 46.3% 8553 01-30-15
44 mauserman 45.8% 8631 01-30-15
45 Quartz 45.4% 8692 01-30-15
46 teamblackarms 44.4% 8852 01-30-15
47 Psyknux 44.0% 8919 01-30-15
48 James_Bertolli 43.6% 8982 01-30-15
49 NintenDan 43.0% 9065 01-30-15
50 Webber3000 42.4% 9162 01-30-15
51 Turbos 42.3% 9181 01-30-15
52 Fr3nZy 42.3% 9191 01-30-15
53 Ring Rush 42.2% 9198 01-30-15
54 Cream147 42.1% 9215 01-30-15
55 videogamemaster777 42.0% 9232 01-30-15
56 Siavash Tazari 41.7% 9284 01-30-15
57 buddychaos0415 41.3% 9348 01-30-15
58 SadisticMystic 40.4% 9480 01-30-15
59 eggFL 39.7% 9592 01-30-15
60 Redd 39.0% 9706 01-30-15
61 SB737 38.1% 9848 01-30-15
62 drminus 37.9% 9883 01-30-15
63 supersonicfan 36.9% 10038 01-30-15
64 FuzZerd 35.8% 10218 01-30-15
65 elecmouse101 35.1% 10325 01-30-15
66 supersonic465 35.0% 10345 01-30-15
67 Austinf 33.6% 10574 01-30-15
68 metanightmare22 33.5% 10592 01-30-15
69 Aitamen 33.3% 10609 01-30-15
70 dabestgamer 33.3% 10621 01-30-15
71 Cyan Ryan 33.2% 10638 01-30-15
72 MiStEr_ShAoLiN 33.1% 10642 01-30-15
73 itsPersonnal 32.1% 10812 01-30-15
74 Cybrax 31.3% 10942 01-30-15
75 Andrea Ritsu 31.1% 10964 01-30-15
76 SilvertheAlmighty 31.0% 10983 01-30-15
77 danieldude 31.0% 10986 01-30-15
78 VMU Player Banned 29.1% 11283 01-30-15
79 Staf 28.6% 11359 01-30-15
80 Omega Rafael Santos 28.6% 11371 01-30-15
81 The T 28.4% 11402 01-30-15
82 EngiNerd 28.1% 11449 01-30-15
83 lordmetalsonic 27.4% 11564 01-30-15
84 Hipertails12 26.9% 11640 01-30-15
85 welldooder64 26.7% 11666 01-30-15
86 GreatStar 26.6% 11679 01-30-15
86 Sondow 26.6% 11679 01-30-15
88 The Great Lord Mick 26.4% 11719 01-30-15
89 Mastakirby 26.3% 11739 01-30-15
90 LinksDarkArrows 26.2% 11748 01-30-15
91 Skylace 25.2% 11904 01-30-15
92 Rolken 23.8% 12135 01-30-15
93 Nimrod 23.0% 12264 01-30-15
94 Xia 22.2% 12379 01-30-15
95 Kogen Player Banned 22.1% 12403 01-30-15
96 Spinballwizard 22.0% 12418 01-30-15
97 Cutiefox 21.6% 12485 01-30-15
98 f0rever_zer0 21.5% 12498 01-30-15
99 Don 21.4% 12505 01-30-15
100 Miles9999 21.4% 12509 01-30-15
101 andres430 20.7% 12616 01-30-15
102 Cruizer 20.7% 12630 01-30-15
103 iSonicKid2K 20.4% 12664 01-30-15
104 SADXTryHard 20.0% 12740 01-30-15
105 GarnetPrincess 19.7% 12781 01-30-15
106 knuckles_sonic8 19.1% 12884 01-30-15
107 Team_Yoshi 18.4% 12987 01-30-15
108 The Knuckles Chao 18.1% 13030 01-30-15
109 FoxBoy 17.9% 13062 01-30-15
110 Termon 17.8% 13078 01-30-15
111 KinkyCadence 17.7% 13100 01-30-15
112 SonicWinDX 15.8% 13399 01-30-15
113 Sonic Singularity 15.8% 13405 01-30-15
114 Pokemonmaster888 15.8% 13407 01-30-15
115 BigAL49 14.8% 13568 01-30-15
116 SilverSonic 14.6% 13601 01-30-15
117 MPit08 14.5% 13614 01-30-15
118 Mo Player Banned 14.3% 13651 01-30-15
119 HyperSonic64 13.5% 13763 01-30-15
120 Cod4Scopes 13.5% 13768 01-30-15
121 booo95 13.4% 13784 01-30-15
122 Chawkk 13.3% 13805 01-30-15
123 SuperSonic101 13.1% 13834 01-30-15
124 Maxinfamily 12.9% 13871 01-30-15
125 Hunters13 12.9% 13872 01-30-15
126 PsyBorg 12.6% 13921 01-30-15
127 Kanimayo_Jp 12.5% 13923 01-30-15
128 Flying Fox 12.5% 13926 01-30-15
129 BrokenArthritis 12.4% 13941 01-30-15
130 LilZero 12.4% 13947 01-30-15
131 paulie9990 12.3% 13964 01-30-15
132 sonicspeed 11.8% 14034 01-30-15
133 douglas 11.7% 14058 01-30-15
134 Therio 11.6% 14077 01-30-15
135 Matt_TY 11.4% 14106 01-30-15
136 Cooljay 10.8% 14208 01-30-15
137 SeaWolf 10.6% 14225 01-30-15
138 joecoolgames 10.6% 14230 01-30-15
139 TFEC Headshot 10.1% 14317 01-30-15
140 welshmoose05 10.0% 14325 01-30-15
141 crazy1993 9.8% 14366 01-30-15
142 Mcshuggets 9.6% 14392 01-30-15
143 videogamer1014 9.4% 14417 01-30-15
144 imazor017 9.2% 14458 01-30-15
144 nuckrieg 9.2% 14458 01-30-15
144 SonicAD 9.2% 14458 01-30-15
147 niscool 9.1% 14465 01-30-15
148 SirTobbii 9.1% 14473 01-30-15
149 superjupi 8.9% 14503 01-30-15
150 Shadowthegreat 8.9% 14506 01-30-15
151 SaviourDC 8.6% 14557 01-30-15
152 iarebored 8.5% 14561 01-30-15
153 sonamyfan666 8.5% 14568 01-30-15
154 SonicKnuckles 8.4% 14589 01-30-15
155 Werey 8.3% 14595 01-30-15
156 adf 8.0% 14642 01-30-15
157 ArcticDragon 7.9% 14665 01-30-15
158 Megaman EXE565 7.9% 14666 01-30-15
159 Platformer 7.5% 14724 01-30-15
160 FocusSight64 7.4% 14747 01-30-15
161 timpkmn89 7.3% 14754 01-30-15
162 wheatrich 7.3% 14755 01-30-15
163 Swift Hobo 7.3% 14766 01-30-15
164 Rickyman48 7.1% 14793 01-30-15
165 KitsuneYamaro 6.9% 14824 01-30-15
166 Triseena 6.8% 14845 01-30-15
167 CyberShadow 6.6% 14873 01-30-15
168 dShadow 6.5% 14888 01-30-15
168 slade23 6.5% 14888 01-30-15
170 Starlight Sable 6.4% 14903 01-30-15
171 IsisDazs 6.3% 14920 01-30-15
172 BlankTH 6.2% 14938 01-30-15
173 Monkeh 5.9% 14987 01-30-15
174 Richied 5.8% 14990 01-30-15
175 DaDude 5.7% 15011 01-30-15
176 Zip 5.6% 15035 01-30-15
177 sonicd5 5.5% 15038 01-30-15
178 tal39h 5.2% 15089 01-30-15
179 Kirbymon30 5.2% 15100 01-30-15
180 soniccoloursunleashed 4.9% 15143 01-30-15
181 Drflash55 4.9% 15144 01-30-15
182 Bass 4.7% 15169 01-30-15
183 neaolas 4.7% 15170 01-30-15
184 superiorsonic 4.6% 15187 01-30-15
185 Sonicsuperstar1 4.6% 15192 01-30-15
186 UninspiredUsername 4.6% 15194 01-30-15
187 zapp 4.6% 15196 01-30-15
188 gamefreak1292 4.4% 15214 01-30-15
189 SonicU260 4.2% 15258 01-30-15
190 Chaos_Overlord 4.2% 15259 01-30-15
191 TakaRikka 4.0% 15279 01-30-15
192 Valfore 4.0% 15287 01-30-15
193 ShinigamiMachine 3.8% 15318 01-30-15
194 Regano1000 3.8% 15323 01-30-15
195 MK 3.6% 15343 01-30-15
196 Ace747 3.6% 15351 01-30-15
197 Illidan 3.3% 15403 01-30-15
198 Venick409 3.1% 15425 01-30-15
199 Sithwarrior26 3.1% 15432 01-30-15
200 Brian_pso 3.1% 15433 01-30-15
201 TheChaosEmeraIds 3.0% 15449 01-30-15
202 ingx24 2.9% 15453 01-30-15
203 SkyBon 2.9% 15460 01-30-15
204 Nickson98 2.9% 15463 01-30-15
205 Fozer 2.8% 15475 01-30-15
206 sonic29887 2.8% 15481 01-30-15
207 Colomb_30 2.7% 15483 01-30-15
208 FSSRandomvids 2.7% 15485 01-30-15
209 TheUltraBlur 2.6% 15501 01-30-15
210 1stKirbyever 2.6% 15511 01-30-15
211 Th4tN1nj4Turtl3 2.4% 15545 01-30-15
212 Cort_pso 2.3% 15552 01-30-15
213 ieatatsonic 2.3% 15556 01-30-15
214 Doom-9 2.3% 15557 01-30-15
215 Mariosonic15 2.3% 15562 01-30-15
216 SuperSonic71087 2.2% 15570 01-30-15
217 MStitomix 2.1% 15582 01-30-15
218 HermitHelmet 2.1% 15583 01-30-15
219 Artie 2.0% 15595 01-30-15
220 Got4n 2.0% 15598 01-30-15
221 Jose_15 2.0% 15607 01-30-15
222 Questionguy555 1.9% 15612 01-30-15
223 a_moustache 1.9% 15618 01-30-15
224 djmat 1.9% 15622 01-30-15
225 sonicandamy 1.7% 15645 01-30-15
226 Heroes_Hater 1.7% 15648 01-30-15
227 LancexExWx 1.7% 15649 01-30-15
228 son1cgu1tar 1.7% 15653 01-30-15
229 Paixii 1.6% 15659 01-30-15
230 BallzeH 1.6% 15673 01-30-15
231 Mankster101 1.5% 15678 01-30-15
232 BecauseWarAnvil 1.5% 15679 01-30-15
233 Jamixesa 1.5% 15683 01-30-15
234 Shanekilz 1.4% 15691 01-30-15
234 SpiritDragon1995 1.4% 15691 01-30-15
236 Crydio 1.4% 15694 01-30-15
237 ReuelBrony 1.4% 15702 01-30-15
238 stanski 1.3% 15710 01-30-15
239 Sonique Hedgehog 1.3% 15712 01-30-15
240 p0ker 1.2% 15723 01-30-15
241 Blue Infamy 1.2% 15725 01-30-15
242 Arthas 1.2% 15735 01-30-15
242 ErrortheCucco 1.2% 15735 01-30-15
244 Rikum22 1.1% 15738 01-30-15
245 sonic1001 1.1% 15746 01-30-15
245 WingedInsignia 1.1% 15746 01-30-15
247 AJSIV 1.1% 15753 01-30-15
247 syco1098 1.1% 15753 01-30-15
249 Sonic the Hedgehod16 1.0% 15754 01-30-15
250 Calfd 1.0% 15761 01-30-15
251 Mariobutch 1.0% 15762 01-30-15
252 BlackArmsShadow 0.9% 15771 01-30-15
253 themachoman202 0.9% 15776 01-30-15
254 Ben1502 0.9% 15781 01-30-15
255 MastaToken 0.9% 15782 01-30-15
255 shadowblast63 Player Banned 0.9% 15782 01-30-15
257 Fivavoa 0.9% 15783 01-30-15
257 Greham Adelphis 0.9% 15783 01-30-15
259 darkstarblaze 0.8% 15786 01-30-15
259 Mr. Jones 0.8% 15786 01-30-15
259 ptorflaxendrosis 0.8% 15786 01-30-15
262 arcfx1985 0.8% 15788 01-30-15
263 FlandreScarlet9999vr 0.8% 15792 01-30-15
263 Gvozdevik 0.8% 15792 01-30-15
263 Knuckles 0.8% 15792 01-30-15
266 KaM Mark MaK 0.8% 15800 01-30-15
267 BeeAwwb 0.7% 15802 01-30-15
268 ShadouZaHejjihoggu 0.7% 15807 01-30-15
269 Sonic62 0.7% 15813 01-30-15
270 darkersupershadic 0.7% 15816 01-30-15
271 Sogeking 0.7% 15817 01-30-15
272 dragondragon18 0.6% 15820 01-30-15
272 Shadygamerfreak 0.6% 15820 01-30-15
274 Sarger001 0.6% 15821 01-30-15
274 SonicK100 0.6% 15821 01-30-15
276 Grady219 0.6% 15822 01-30-15
277 Jawaah 0.6% 15826 01-30-15
278 Antek 0.6% 15830 01-30-15
279 SilverK 0.6% 15831 01-30-15
280 Klaus 0.6% 15832 01-30-15
281 BioShadow 0.5% 15837 01-30-15
282 SpinDashMaster 0.5% 15841 01-30-15
283 Videogamer123 0.5% 15842 01-30-15
284 Egor305 0.4% 15856 01-30-15
284 oTaiIilLsS 0.4% 15856 01-30-15
286 isaihtb11 0.4% 15857 01-30-15
287 OhNoes! 0.4% 15858 01-30-15
288 Mad Andy 0.4% 15859 01-30-15
289 zaktu40 0.4% 15860 01-30-15
290 gaara1234 0.4% 15863 01-30-15
291 gamed00d 0.4% 15864 01-30-15
292 Mister_Slick 0.3% 15874 01-30-15
293 Sonic06Fan 0.3% 15876 01-30-15
294 Rush Hero 0.3% 15877 01-30-15
295 SonicMega167 0.3% 15880 01-30-15
296 Iwannabelink 0.3% 15881 01-30-15
297 sonknuck23 0.2% 15886 01-30-15
298 gamer1245 0.2% 15891 01-30-15
299 DanielTheFalcon 0.2% 15892 01-30-15
300 Burningskull123 0.1% 15899 01-30-15
301 Sonicontherun 0.1% 15909 01-30-15
302 Lil_Dude 0.1% 15913 01-30-15
303 antiwwe 0.0% 15915 01-30-15
304 Genuine Hedgehog 0.0% 15919 01-30-15
305 Cbwade15 0.0% 15920 01-30-15
306 Tyrouble 0.0% 15922 01-30-15
307 MegabombBlade 0.0% 15929 01-30-15
307 neji_hyuuga 0.0% 15929 01-30-15
307 Over 0.0% 15929 01-30-15
307 sdj6707 Player Banned 0.0% 15929 01-30-15
307 Tran Sonic Fan Player Banned 0.0% 15929 01-30-15

This page is using the New Data Table System. [FUTURE]

Game ID: 3 | Category ID: 10
Hits: 3,056 | Hits This Month: 37 | DB Calls: 23 | Mem Usage: 5.44 MB | Time: 0.13s | Printable

The Sonic Center v3.9
Copyright 2003-2011 by The Sonic Center Team.